Time,TemperatureF,DewpointF,PressureIn,WindDirection,WindDirectionDegrees,WindSpeedMPH,WindSpeedGustMPH,Humidity,HourlyPrecipIn,Conditions,Clouds,dailyrainin,SoftwareType,DateUTC
2013-11-05 00:02:00,13.0,8.0,-100.00,WNW,289,0.0,2.0,81,0.00,,,-99.99,,2013-11-05 08:02:00,
2013-11-05 00:22:00,12.0,8.0,-100.00,North,-999,0.0,0.0,83,0.00,,,-99.99,,2013-11-05 08:22:00,
2013-11-05 00:52:00,11.0,7.0,-100.00,North,1,0.0,2.0,84,0.00,,,-99.99,,2013-11-05 08:52:00,
2013-11-05 01:53:00,9.0,5.0,-100.00,NNW,343,1.0,3.0,84,0.00,,,-99.99,,2013-11-05 09:53:00,
2013-11-05 02:02:00,9.0,5.0,-100.00,NNW,343,1.0,3.0,84,0.00,,,-99.99,,2013-11-05 10:02:00,
2013-11-05 02:42:00,10.0,6.0,-100.00,NNW,337,1.0,2.0,84,0.00,,,-99.99,,2013-11-05 10:42:00,
2013-11-05 02:53:00,9.0,5.0,-100.00,North,353,0.0,2.0,84,0.00,,,-99.99,,2013-11-05 10:53:00,
2013-11-05 03:42:00,9.0,5.0,-100.00,North,-999,0.0,0.0,84,0.00,,,-99.99,,2013-11-05 11:42:00,
2013-11-05 05:42:00,8.0,4.0,-100.00,North,352,1.0,3.0,83,0.00,,,-99.99,,2013-11-05 13:42:00,
2013-11-05 06:42:00,7.0,3.0,-100.00,NNW,342,0.0,2.0,83,0.00,,,-99.99,,2013-11-05 14:42:00,
2013-11-05 07:43:00,15.0,11.0,-100.00,ENE,75,0.0,3.0,83,0.00,,,-99.99,,2013-11-05 15:43:00,
2013-11-05 08:13:00,22.0,15.0,-100.00,NNE,31,1.0,3.0,75,0.00,,,-99.99,,2013-11-05 16:13:00,
2013-11-05 08:23:00,24.0,15.0,-100.00,North,3,5.0,9.0,69,0.00,,,-99.99,,2013-11-05 16:23:00,
2013-11-05 08:43:00,25.0,14.0,-100.00,NNW,340,5.0,9.0,63,0.00,,,-99.99,,2013-11-05 16:43:00,
2013-11-05 09:12:00,26.0,14.0,-100.00,North,354,6.0,10.0,59,0.00,,,-99.99,,2013-11-05 17:12:00,
2013-11-05 09:22:00,26.0,14.0,-100.00,North,354,6.0,10.0,59,0.00,,,-99.99,,2013-11-05 17:22:00,
2013-11-05 09:42:00,28.0,14.0,-100.00,NNW,347,7.0,13.0,54,0.00,,,-99.99,,2013-11-05 17:42:00,
2013-11-05 10:12:00,29.0,13.0,-100.00,NNW,346,7.0,13.0,50,0.00,,,-99.99,,2013-11-05 18:12:00,
2013-11-05 10:22:00,29.0,12.0,-100.00,NNE,13,6.0,14.0,49,0.00,,,-99.99,,2013-11-05 18:22:00,
2013-11-05 10:42:00,30.0,12.0,-100.00,NNW,339,5.0,12.0,46,0.00,,,-99.99,,2013-11-05 18:42:00,
2013-11-05 10:52:00,30.0,12.0,-100.00,NNW,339,5.0,12.0,46,0.00,,,-99.99,,2013-11-05 18:52:00,
2013-11-05 11:11:00,31.0,10.0,-100.00,NNW,328,7.0,13.0,41,0.00,,,-99.99,,2013-11-05 19:11:00,
2013-11-05 11:22:00,32.0,10.0,-100.00,NNW,339,5.0,10.0,39,0.00,,,-99.99,,2013-11-05 19:22:00,
2013-11-05 11:42:00,32.0,7.0,-100.00,NNE,21,5.0,10.0,34,0.00,,,-99.99,,2013-11-05 19:42:00,
2013-11-05 12:12:00,33.0,8.0,-100.00,North,349,5.0,9.0,34,0.00,,,-99.99,,2013-11-05 20:12:00,
2013-11-05 12:22:00,34.0,8.0,-100.00,North,7,4.0,7.0,33,0.00,,,-99.99,,2013-11-05 20:22:00,
2013-11-05 12:42:00,35.0,7.0,-100.00,NNE,24,4.0,7.0,31,0.00,,,-99.99,,2013-11-05 20:42:00,
2013-11-05 13:11:00,36.0,7.0,-100.00,NNW,342,5.0,12.0,29,0.00,,,-99.99,,2013-11-05 21:11:00,
2013-11-05 13:21:00,36.0,7.0,-100.00,NNW,342,5.0,12.0,29,0.00,,,-99.99,,2013-11-05 21:21:00,
2013-11-05 13:44:00,36.0,5.0,-100.00,NW,323,7.0,13.0,27,0.00,,,-99.99,,2013-11-05 21:44:00,
2013-11-05 14:13:00,37.0,13.0,-100.00,WNW,298,5.0,16.0,37,0.00,,,-99.99,,2013-11-05 22:13:00,
2013-11-05 14:23:00,37.0,9.0,-100.00,SW,216,6.0,11.0,31,0.00,,,-99.99,,2013-11-05 22:23:00,
2013-11-05 14:34:00,37.0,9.0,-100.00,SW,216,6.0,11.0,31,0.00,,,-99.99,,2013-11-05 22:34:00,
2013-11-05 14:43:00,37.0,9.0,-100.00,SW,216,6.0,11.0,31,0.00,,,-99.99,,2013-11-05 22:43:00,
2013-11-05 14:53:00,38.0,11.0,-100.00,SW,227,4.0,10.0,32,0.00,,,-99.99,,2013-11-05 22:53:00,
2013-11-05 15:03:00,38.0,11.0,-100.00,SW,227,4.0,10.0,32,0.00,,,-99.99,,2013-11-05 23:03:00,
2013-11-05 15:22:00,38.0,10.0,-100.00,WSW,243,4.0,8.0,31,0.00,,,-99.99,,2013-11-05 23:22:00,
2013-11-05 15:42:00,38.0,11.0,-100.00,NW,322,4.0,7.0,32,0.00,,,-99.99,,2013-11-05 23:42:00,
2013-11-05 15:53:00,38.0,9.0,-100.00,NNW,347,3.0,7.0,30,0.00,,,-99.99,,2013-11-05 23:53:00,
2013-11-05 16:03:00,38.0,9.0,-100.00,NNW,347,3.0,7.0,30,0.00,,,-99.99,,2013-11-06 00:03:00,
2013-11-05 16:42:00,37.0,10.0,-100.00,NW,313,2.0,4.0,32,0.00,,,-99.99,,2013-11-06 00:42:00,
2013-11-05 16:52:00,35.0,10.0,-100.00,WSW,258,4.0,6.0,35,0.00,,,-99.99,,2013-11-06 00:52:00,
2013-11-05 17:02:00,35.0,10.0,-100.00,WSW,258,4.0,6.0,35,0.00,,,-99.99,,2013-11-06 01:02:00,
2013-11-05 17:21:00,32.0,11.0,-100.00,West,261,4.0,7.0,41,0.00,,,-99.99,,2013-11-06 01:21:00,
2013-11-05 17:42:00,30.0,12.0,-100.00,West,278,3.0,6.0,47,0.00,,,-99.99,,2013-11-06 01:42:00,
2013-11-05 17:52:00,26.0,13.0,-100.00,NNW,332,0.0,2.0,57,0.00,,,-99.99,,2013-11-06 01:52:00,
2013-11-05 18:12:00,25.0,14.0,-100.00,NE,44,0.0,2.0,62,0.00,,,-99.99,,2013-11-06 02:12:00,
2013-11-05 18:22:00,25.0,14.0,-100.00,NE,44,0.0,2.0,62,0.00,,,-99.99,,2013-11-06 02:22:00,
2013-11-05 18:42:00,23.0,12.0,-100.00,NNW,339,1.0,3.0,63,0.00,,,-99.99,,2013-11-06 02:42:00,
2013-11-05 18:52:00,23.0,12.0,-100.00,NNW,339,1.0,3.0,63,-99.99,,,-99.99,,2013-11-06 02:52:00,
2013-11-05 19:43:00,20.0,12.0,-100.00,North,-999,0.0,0.0,72,0.00,,,-99.99,,2013-11-06 03:43:00,
2013-11-05 19:54:00,20.0,13.0,-100.00,North,359,1.0,2.0,74,0.00,,,-99.99,,2013-11-06 03:54:00,
2013-11-05 20:04:00,20.0,13.0,-100.00,North,359,1.0,2.0,74,0.00,,,-99.99,,2013-11-06 04:04:00,
2013-11-05 20:13:00,20.0,13.0,-100.00,North,359,1.0,2.0,74,0.00,,,-99.99,,2013-11-06 04:13:00,
2013-11-05 20:23:00,20.0,13.0,-100.00,North,359,1.0,2.0,74,0.00,,,-99.99,,2013-11-06 04:23:00,
2013-11-05 20:43:00,19.0,12.0,-100.00,North,-999,0.0,0.0,73,0.00,,,-99.99,,2013-11-06 04:43:00,
2013-11-05 20:53:00,20.0,12.0,-100.00,North,-999,0.0,0.0,71,0.00,,,-99.99,,2013-11-06 04:53:00,
2013-11-05 21:13:00,18.0,12.0,-100.00,North,-999,0.0,0.0,76,0.00,,,-99.99,,2013-11-06 05:13:00,
2013-11-05 21:53:00,18.0,12.0,-100.00,North,-999,0.0,0.0,76,0.00,,,-99.99,,2013-11-06 05:53:00,
2013-11-05 22:52:00,17.0,12.0,-100.00,North,-999,0.0,0.0,80,0.00,,,-99.99,,2013-11-06 06:52:00,
2013-11-05 23:02:00,17.0,12.0,-100.00,North,-999,0.0,0.0,80,0.00,,,-99.99,,2013-11-06 07:02:00,
2013-11-05 23:21:00,20.0,13.0,-100.00,North,-999,0.0,0.0,74,0.00,,,-99.99,,2013-11-06 07:21:00,
2013-11-05 23:42:00,20.0,14.0,-100.00,North,-999,0.0,0.0,77,0.00,,,-99.99,,2013-11-06 07:42:00,
2013-11-05 23:52:00,20.0,14.0,-100.00,North,4,0.0,3.0,76,0.00,,,-99.99,,2013-11-06 07:52:00,